Time;durP1;ratioP1;P1;durP2;ratioP2;P2;SDS_P1;SDS_P2;PMS_P1;PMS_P2;Temp;Humidity;BMP_temperature;BMP_pressure;BME280_temperature;BME280_humidity;BME280_pressure;Samples;Min_cycle;Max_cycle;Signal;HPM_P1;HPM_P2
2022/11/16 00:01:01;;;;;;;;;;;;;;;14.98;76.09;99122.31;5095946;28;987;-64
2022/11/16 00:03:26;;;;;;;;;;;;;;;14.97;76.48;99121.50;5095984;28;979;-64
2022/11/16 00:05:58;;;;;;;;;;;;;;;14.97;76.95;99117.97;5095582;28;1889;-65
2022/11/16 00:08:23;;;;;;;;;;;;;;;14.98;76.24;99127.81;5095827;28;863;-65
2022/11/16 00:10:48;;;;;;;;;;;;;;;14.98;76.30;99127.81;5095830;28;868;-64
2022/11/16 00:13:14;;;;;;;;;;;;;;;14.97;76.92;99118.75;5095758;28;853;-65
2022/11/16 00:15:39;;;;;;;;;;;;;;;14.98;76.81;99122.31;5095407;28;1168;-65
2022/11/16 00:18:04;;;;;;;;;;;;;;;14.99;76.27;99121.16;5095433;28;979;-65
2022/11/16 00:20:29;;;;;;;;;;;;;;;14.98;76.33;99114.03;5095582;28;931;-64
2022/11/16 00:22:54;;;;;;;;;;;;;;;14.98;76.61;99116.81;5095613;28;805;-64
2022/11/16 00:25:19;;;;;;;;;;;;;;;14.98;76.90;99116.81;5095427;28;1160;-64
2022/11/16 00:27:44;;;;;;;;;;;;;;;14.98;76.76;99109.34;5095138;28;1894;-64
2022/11/16 00:30:10;;;;;;;;;;;;;;;14.98;76.28;99106.59;5095472;28;826;-64
2022/11/16 00:32:35;;;;;;;;;;;;;;;14.99;76.32;99105.44;5095321;28;1054;-65
2022/11/16 00:35:00;;;;;;;;;;;;;;;14.97;77.01;99104.19;5095132;28;1281;-65
2022/11/16 00:37:25;;;;;;;;;;;;;;;14.98;76.83;99105.78;5095131;28;745;-64
2022/11/16 00:39:50;;;;;;;;;;;;;;;14.99;76.80;99101.88;5095262;28;880;-64
2022/11/16 00:42:15;;;;;;;;;;;;;;;14.99;76.42;99104.63;5095277;28;848;-65
2022/11/16 00:44:41;;;;;;;;;;;;;;;14.98;76.60;99114.03;5094934;28;1269;-65
2022/11/16 00:47:06;;;;;;;;;;;;;;;14.98;76.62;99112.09;5094839;28;1955;-66
2022/11/16 00:49:31;;;;;;;;;;;;;;;14.99;76.70;99104.63;5089398;28;1200;-64
2022/11/16 00:51:56;;;;;;;;;;;;;;;14.99;76.96;99104.63;5074865;28;1042;-65
2022/11/16 00:54:21;;;;;;;;;;;;;;;14.99;76.94;99107.38;5074801;28;931;-64
2022/11/16 00:56:47;;;;;;;;;;;;;;;14.98;76.31;99095.56;5073708;28;1216;-64
2022/11/16 00:59:12;;;;;;;;;;;;;;;14.99;76.56;99102.69;5074547;28;808;-64
2022/11/16 01:01:37;;;;;;;;;;;;;;;14.99;76.79;99107.38;5074591;28;758;-65
2022/11/16 01:04:02;;;;;;;;;;;;;;;14.99;76.24;99101.88;5074603;28;904;-65
2022/11/16 01:06:27;;;;;;;;;;;;;;;14.99;76.92;99097.19;5074163;28;1894;-65
2022/11/16 01:08:52;;;;;;;;;;;;;;;14.99;77.00;99099.13;5074432;28;1023;-65
2022/11/16 01:14:03;;;;;;;;;;;;;;;14.99;76.96;99096.38;5074564;28;706;-65
2022/11/16 01:16:28;;;;;;;;;;;;;;;14.99;77.00;99090.84;5073954;28;1306;-64
2022/11/16 01:18:54;;;;;;;;;;;;;;;14.97;76.56;99082.94;5074548;28;798;-64
2022/11/16 01:21:20;;;;;;;;;;;;;;;14.99;76.44;99088.09;5074299;28;967;-65
2022/11/16 01:23:45;;;;;;;;;;;;;;;14.98;77.07;99089.25;5074194;28;874;-65
2022/11/16 01:26:10;;;;;;;;;;;;;;;15.00;76.84;99096.03;5073764;28;1960;-64
2022/11/16 01:28:35;;;;;;;;;;;;;;;14.98;76.63;99080.97;5073952;28;1029;-64
2022/11/16 01:31:00;;;;;;;;;;;;;;;14.98;76.85;99084.53;5073975;28;839;-65
2022/11/16 01:33:26;;;;;;;;;;;;;;;14.99;77.09;99077.09;5073943;28;927;-64
2022/11/16 01:35:51;;;;;;;;;;;;;;;14.99;77.18;99074.31;5073496;28;1306;-64
2022/11/16 01:38:16;;;;;;;;;;;;;;;14.99;76.57;99074.31;5073933;28;995;-64
2022/11/16 01:40:41;;;;;;;;;;;;;;;14.98;76.54;99070.75;5073760;28;954;-65
2022/11/16 01:43:17;;;;;;;;;;;;;;;14.98;77.13;99073.53;5073724;28;994;-64
2022/11/16 01:45:42;;;;;;;;;;;;;;;14.99;76.80;99068.81;5073657;28;1604;-65
2022/11/16 01:48:09;;;;;;;;;;;;;;;14.98;77.07;99057.00;5073478;28;1964;-65
2022/11/16 01:50:34;;;;;;;;;;;;;;;14.97;77.29;99062.88;5073653;28;1038;-65
2022/11/16 01:53:03;;;;;;;;;;;;;;;14.99;76.73;99063.31;5073692;28;876;-65
2022/11/16 01:55:30;;;;;;;;;;;;;;;14.98;76.52;99050.66;5073387;28;1288;-65
2022/11/16 01:57:55;;;;;;;;;;;;;;;14.99;76.73;99060.53;5073221;28;813;-65
2022/11/16 02:00:21;;;;;;;;;;;;;;;14.98;76.66;99051.47;5073510;28;919;-64
2022/11/16 02:02:46;;;;;;;;;;;;;;;14.99;77.20;99055.03;5073502;28;889;-64
2022/11/16 02:05:13;;;;;;;;;;;;;;;14.99;77.40;99046.78;5073386;28;1165;-65
2022/11/16 02:10:49;;;;;;;;;;;;;;;15.00;76.99;99042.88;5073713;28;704;-64
2022/11/16 02:13:32;;;;;;;;;;;;;;;14.99;76.93;99033.00;5073405;28;876;-64
2022/11/16 02:16:18;;;;;;;;;;;;;;;15.00;76.69;99037.34;5073053;28;1303;-66
2022/11/16 02:19:00;;;;;;;;;;;;;;;14.98;77.34;99040.44;5073221;28;990;-64
2022/11/16 02:21:31;;;;;;;;;;;;;;;15.00;76.78;99037.34;5073348;28;1041;-64
2022/11/16 02:24:15;;;;;;;;;;;;;;;15.00;76.75;99031.84;5073319;28;862;-65
2022/11/16 02:26:54;;;;;;;;;;;;;;;14.99;76.85;99036.56;5072764;28;1898;-64
2022/11/16 02:29:35;;;;;;;;;;;;;;;14.99;76.62;99033.78;5073508;28;855;-65
2022/11/16 02:32:14;;;;;;;;;;;;;;;14.99;77.36;99033.00;5073323;28;934;-64
2022/11/16 02:34:41;;;;;;;;;;;;;;;14.99;76.84;99031.03;5073063;28;1315;-64
2022/11/16 02:37:09;;;;;;;;;;;;;;;15.00;77.44;99027.13;5072839;28;1014;-64
2022/11/16 02:39:36;;;;;;;;;;;;;;;14.99;77.13;99022.78;5073043;28;888;-64
2022/11/16 02:42:02;;;;;;;;;;;;;;;14.99;77.03;99021.97;5073044;28;1058;-65
2022/11/16 02:44:37;;;;;;;;;;;;;;;14.99;77.33;99033.00;5073309;28;808;-64
2022/11/16 02:47:05;;;;;;;;;;;;;;;15.00;77.31;99031.84;5072760;28;1905;-65
2022/11/16 02:49:34;;;;;;;;;;;;;;;15.00;77.41;99026.34;5072880;28;827;-64
2022/11/16 02:51:59;;;;;;;;;;;;;;;14.98;77.43;99023.91;5073007;28;817;-65
2022/11/16 02:54:24;;;;;;;;;;;;;;;15.00;77.35;99029.09;5073036;28;1042;-64
2022/11/16 02:56:55;;;;;;;;;;;;;;;15.00;77.49;99029.09;5072444;28;1251;-64
2022/11/16 02:59:21;;;;;;;;;;;;;;;15.00;77.11;99032.66;5072910;28;864;-64
2022/11/16 03:02:21;;;;;;;;;;;;;;;15.00;76.89;99026.34;5072835;28;850;-66
2022/11/16 03:04:52;;;;;;;;;;;;;;;15.00;76.94;99027.13;5070444;28;1208;-64
2022/11/16 03:07:22;;;;;;;;;;;;;;;14.99;76.94;99027.47;5072070;28;1889;-65
2022/11/16 03:09:49;;;;;;;;;;;;;;;15.00;77.45;99020.81;5072575;28;908;-65
2022/11/16 03:12:17;;;;;;;;;;;;;;;15.00;76.84;99020.81;5071820;28;865;-65
2022/11/16 03:14:42;;;;;;;;;;;;;;;14.99;77.38;99025.53;5072667;28;1274;-64
2022/11/16 03:17:15;;;;;;;;;;;;;;;14.98;77.31;99018.41;5072515;28;808;-65
2022/11/16 03:19:45;;;;;;;;;;;;;;;15.00;76.83;99029.09;5072910;28;809;-65
2022/11/16 03:22:13;;;;;;;;;;;;;;;14.99;77.28;99020.03;5076454;28;994;-64
2022/11/16 03:24:38;;;;;;;;;;;;;;;15.00;76.92;99023.59;5076209;28;1736;-64
2022/11/16 03:27:03;;;;;;;;;;;;;;;14.99;77.06;99030.25;5075965;28;1957;-65
2022/11/16 03:29:38;;;;;;;;;;;;;;;15.00;77.33;99026.34;5076388;28;951;-65
2022/11/16 03:32:10;;;;;;;;;;;;;;;15.00;77.41;99029.09;5076259;28;908;-65
2022/11/16 03:34:36;;;;;;;;;;;;;;;15.00;77.01;99029.91;5076293;28;969;-64
2022/11/16 03:37:02;;;;;;;;;;;;;;;15.00;77.36;99021.63;5075709;28;1231;-65
2022/11/16 03:39:30;;;;;;;;;;;;;;;14.99;76.84;99028.28;5076212;28;1049;-64
2022/11/16 03:41:57;;;;;;;;;;;;;;;14.99;77.68;99021.97;5076143;28;809;-64
2022/11/16 03:44:22;;;;;;;;;;;;;;;15.00;77.58;99024.38;5074879;28;1427;-64
2022/11/16 03:46:47;;;;;;;;;;;;;;;14.99;77.04;99021.97;5075606;28;1899;-65
2022/11/16 03:49:12;;;;;;;;;;;;;;;15.00;76.73;99012.56;5075929;28;920;-64
2022/11/16 03:51:38;;;;;;;;;;;;;;;15.00;77.23;99021.63;5075875;28;801;-64
2022/11/16 03:54:03;;;;;;;;;;;;;;;14.99;77.42;99017.25;5075935;28;884;-66
2022/11/16 03:56:28;;;;;;;;;;;;;;;15.00;76.97;99020.81;5075494;28;1215;-65
2022/11/16 03:58:53;;;;;;;;;;;;;;;15.00;76.85;99013.38;5075775;28;987;-65
2022/11/16 04:01:19;;;;;;;;;;;;;;;14.99;76.91;99009.00;5075836;28;1179;-65
2022/11/16 04:03:44;;;;;;;;;;;;;;;15.01;76.82;99003.94;5074403;28;947;-64
2022/11/16 04:25:24;;;;;;;;;;;;;;;15.01;77.46;98995.69;5075579;28;1342;-65
2022/11/16 04:38:44;;;;;;;;;;;;;;;15.01;76.97;99006.72;5075232;28;724;-65
2022/11/16 04:42:13;;;;;;;;;;;;;;;15.01;77.13;98997.63;5074993;28;1055;-64
2022/11/16 04:43:55;;;;;;;;;;;;;;;15.01;77.04;98992.13;5074762;28;1522;-64
2022/11/16 04:49:04;;;;;;;;;;;;;;;15.01;77.53;98992.13;5075151;28;789;-65
2022/11/16 04:51:30;;;;;;;;;;;;;;;15.01;76.83;98984.66;5074885;28;1050;-65
2022/11/16 04:53:55;;;;;;;;;;;;;;;15.03;77.39;98984.31;5082370;28;1465;-64
2022/11/16 04:56:20;;;;;;;;;;;;;;;15.01;77.62;98984.66;5076317;28;1283;-64
2022/11/16 04:58:45;;;;;;;;;;;;;;;15.01;77.43;98992.13;5094850;28;1018;-65
2022/11/16 05:01:10;;;;;;;;;;;;;;;15.01;77.04;98987.41;5094999;28;867;-64
2022/11/16 05:03:35;;;;;;;;;;;;;;;15.02;76.82;98997.28;5094836;28;1212;-64
2022/11/16 05:06:01;;;;;;;;;;;;;;;15.01;76.75;98990.19;5094251;28;1980;-65
2022/11/16 05:08:26;;;;;;;;;;;;;;;15.02;76.66;98989.03;5094698;28;995;-65
2022/11/16 05:10:51;;;;;;;;;;;;;;;15.01;77.10;98984.66;5094590;28;781;-65
2022/11/16 05:13:16;;;;;;;;;;;;;;;15.00;76.96;98983.06;5094645;28;998;-65
2022/11/16 05:15:44;;;;;;;;;;;;;;;15.02;77.46;98988.22;5094476;28;1200;-64
2022/11/16 05:18:09;;;;;;;;;;;;;;;15.02;77.25;98993.72;5094361;28;1129;-65
2022/11/16 05:26:02;;;;;;;;;;;;;;;14.60;77.44;98916.88;5094055;28;1909;-65
2022/11/16 05:28:27;;;;;;;;;;;;;;;15.02;77.13;98988.22;5094354;28;872;-64
2022/11/16 05:30:52;;;;;;;;;;;;;;;15.01;77.39;98976.41;5094314;28;715;-64
2022/11/16 05:33:17;;;;;;;;;;;;;;;15.02;77.08;98978.00;5094180;28;888;-65
2022/11/16 05:35:42;;;;;;;;;;;;;;;15.02;77.11;98977.19;5093858;28;1215;-64
2022/11/16 05:38:07;;;;;;;;;;;;;;;15.01;77.50;98981.91;5093840;28;1256;-65
2022/11/16 05:40:33;;;;;;;;;;;;;;;15.03;76.96;98984.31;5094137;28;781;-64
2022/11/16 05:42:58;;;;;;;;;;;;;;;15.01;77.27;98984.66;5093840;28;1023;-65
2022/11/16 05:45:23;;;;;;;;;;;;;;;15.02;77.21;98980.75;5093932;28;1200;-65
2022/11/16 05:47:48;;;;;;;;;;;;;;;15.02;77.14;98989.03;5093645;28;1894;-66
2022/11/16 05:50:13;;;;;;;;;;;;;;;15.03;77.10;98987.06;5093889;28;971;-64
2022/11/16 05:52:38;;;;;;;;;;;;;;;15.03;77.37;98990.63;5093871;28;971;-64
2022/11/16 05:55:04;;;;;;;;;;;;;;;15.04;77.59;98994.19;5094015;28;1208;-65
2022/11/16 05:57:29;;;;;;;;;;;;;;;15.05;77.30;98993.06;5093620;28;987;-64
2022/11/16 05:59:54;;;;;;;;;;;;;;;15.04;77.24;98988.69;5093780;28;1189;-64
2022/11/16 06:02:19;;;;;;;;;;;;;;;15.04;77.24;98989.50;5093934;28;849;-64
2022/11/16 06:04:44;;;;;;;;;;;;;;;15.05;77.67;98985.59;5093726;28;1294;-64
2022/11/16 06:07:10;;;;;;;;;;;;;;;15.06;77.81;98991.88;5093232;28;1893;-64
2022/11/16 06:09:35;;;;;;;;;;;;;;;15.06;77.65;98989.13;5093504;28;849;-65
2022/11/16 06:12:00;;;;;;;;;;;;;;;15.06;77.47;98989.13;5093532;28;1006;-65
2022/11/16 06:14:25;;;;;;;;;;;;;;;15.06;77.28;98989.13;5093535;28;777;-65
2022/11/16 06:16:50;;;;;;;;;;;;;;;15.08;77.91;98987.63;5093240;28;1160;-66
2022/11/16 06:19:15;;;;;;;;;;;;;;;15.08;77.39;98989.59;5093664;28;898;-65
2022/11/16 06:21:40;;;;;;;;;;;;;;;15.08;77.64;98993.16;5093480;28;883;-64
2022/11/16 06:24:08;;;;;;;;;;;;;;;15.08;77.88;98990.38;5093816;28;790;-64
2022/11/16 06:26:33;;;;;;;;;;;;;;;15.10;77.35;98990.03;5092996;28;1953;-64
2022/11/16 06:28:58;;;;;;;;;;;;;;;15.10;77.59;99001.06;5093435;28;876;-64
2022/11/16 06:31:23;;;;;;;;;;;;;;;15.10;77.51;98992.81;5093388;28;884;-64
2022/11/16 06:33:48;;;;;;;;;;;;;;;15.09;77.80;98997.50;5093490;28;967;-65
2022/11/16 06:36:13;;;;;;;;;;;;;;;15.10;77.40;98998.31;5092802;28;1183;-65
2022/11/16 06:38:39;;;;;;;;;;;;;;;15.10;77.60;98995.56;5093574;28;864;-65
2022/11/16 06:41:04;;;;;;;;;;;;;;;15.10;77.79;99001.06;5093301;28;1046;-65
2022/11/16 06:43:29;;;;;;;;;;;;;;;15.10;77.40;99004.63;5093258;28;891;-66
2022/11/16 06:45:56;;;;;;;;;;;;;;;15.10;77.86;99003.81;5092989;28;1678;-64
2022/11/16 06:48:22;;;;;;;;;;;;;;;15.09;77.50;98994.75;5093252;28;923;-65
2022/11/16 06:50:48;;;;;;;;;;;;;;;15.08;77.28;99006.94;5093658;28;1002;-64
2022/11/16 06:53:13;;;;;;;;;;;;;;;15.10;78.13;98999.13;5093661;28;865;-66
2022/11/16 06:55:38;;;;;;;;;;;;;;;15.10;77.60;99007.38;5095197;28;1281;-65
2022/11/16 06:58:03;;;;;;;;;;;;;;;15.10;77.80;99010.16;5097250;28;797;-65
2022/11/16 07:00:29;;;;;;;;;;;;;;;15.12;77.57;99018.06;5097255;28;889;-65
2022/11/16 07:02:54;;;;;;;;;;;;;;;15.11;77.28;99014.50;5097259;28;918;-64
2022/11/16 07:05:19;;;;;;;;;;;;;;;15.12;77.86;99018.06;5096961;28;1205;-65
2022/11/16 07:07:44;;;;;;;;;;;;;;;15.12;77.40;99020.81;5096751;28;1949;-66
2022/11/16 07:10:09;;;;;;;;;;;;;;;15.11;77.82;99017.28;5097069;28;1092;-65
2022/11/16 07:12:35;;;;;;;;;;;;;;;15.12;77.47;99023.59;5097188;28;884;-64
2022/11/16 07:15:00;;;;;;;;;;;;;;;15.13;78.15;99025.19;5096925;28;1216;-66
2022/11/16 07:17:25;;;;;;;;;;;;;;;15.12;77.32;99026.34;5096691;28;846;-64
2022/11/16 07:19:50;;;;;;;;;;;;;;;15.13;77.56;99030.72;5096826;28;896;-65
2022/11/16 07:22:15;;;;;;;;;;;;;;;15.13;77.52;99042.53;5096789;28;845;-66
2022/11/16 07:24:40;;;;;;;;;;;;;;;15.13;78.08;99052.75;5096706;28;1200;-65
2022/11/16 07:27:06;;;;;;;;;;;;;;;15.14;77.35;99046.09;5096357;28;1897;-65
2022/11/16 07:29:31;;;;;;;;;;;;;;;15.12;77.40;99043.69;5096683;28;1023;-65
2022/11/16 07:31:56;;;;;;;;;;;;;;;15.13;77.32;99047.25;5096698;28;809;-64
2022/11/16 07:34:21;;;;;;;;;;;;;;;15.13;78.23;99048.03;5096568;28;1019;-66
2022/11/16 07:36:46;;;;;;;;;;;;;;;15.13;77.65;99045.28;5096087;28;1290;-65
2022/11/16 07:39:12;;;;;;;;;;;;;;;15.14;77.91;99048.84;5096511;28;833;-65
2022/11/16 07:41:37;;;;;;;;;;;;;;;15.14;78.07;99057.13;5096663;28;901;-65
2022/11/16 07:44:02;;;;;;;;;;;;;;;15.15;77.34;99055.94;5096516;28;873;-65
2022/11/16 07:46:27;;;;;;;;;;;;;;;15.15;77.53;99050.44;5096018;28;1957;-65
2022/11/16 07:48:53;;;;;;;;;;;;;;;15.15;77.40;99053.19;5096332;28;924;-65
2022/11/16 07:51:19;;;;;;;;;;;;;;;15.14;77.34;99055.13;5096141;28;1026;-65
2022/11/16 07:53:44;;;;;;;;;;;;;;;15.15;77.78;99045.72;5096178;28;2028;-64
2022/11/16 07:56:10;;;;;;;;;;;;;;;15.15;77.75;99054.00;5095881;28;1189;-64
2022/11/16 07:58:35;;;;;;;;;;;;;;;15.15;77.79;99050.44;5096275;28;1002;-65
2022/11/16 08:01:10;;;;;;;;;;;;;;;15.17;77.36;99055.59;5096094;28;870;-64
2022/11/16 08:03:35;;;;;;;;;;;;;;;15.16;77.85;99052.03;5096028;28;847;-64
2022/11/16 08:06:01;;;;;;;;;;;;;;;15.16;77.66;99049.28;5095329;28;1972;-65
2022/11/16 08:08:26;;;;;;;;;;;;;;;15.16;77.84;99063.06;5096000;28;1002;-65
2022/11/16 08:10:57;;;;;;;;;;;;;;;15.16;77.36;99060.31;5095951;28;896;-65
2022/11/16 08:13:22;;;;;;;;;;;;;;;15.17;77.89;99061.13;5095934;28;885;-66
2022/11/16 08:15:47;;;;;;;;;;;;;;;15.17;77.33;99064.69;5095556;28;1203;-64
2022/11/16 08:18:12;;;;;;;;;;;;;;;15.17;77.85;99059.16;5095675;28;946;-64
2022/11/16 08:20:38;;;;;;;;;;;;;;;15.17;77.46;99063.88;5096020;28;876;-64
2022/11/16 08:23:03;;;;;;;;;;;;;;;15.17;77.18;99058.38;5095650;28;995;-64
2022/11/16 08:25:29;;;;;;;;;;;;;;;15.17;77.40;99059.16;5095626;28;1184;-65
2022/11/16 08:27:54;;;;;;;;;;;;;;;15.18;77.70;99063.53;5095417;28;1897;-64
2022/11/16 08:30:19;;;;;;;;;;;;;;;15.18;77.34;99059.97;5095536;28;974;-66
2022/11/16 08:32:45;;;;;;;;;;;;;;;15.17;77.35;99061.13;5095483;28;895;-65
2022/11/16 08:35:10;;;;;;;;;;;;;;;15.17;77.25;99061.91;5095248;28;1221;-65
2022/11/16 08:37:35;;;;;;;;;;;;;;;15.18;77.20;99071.00;5095371;28;861;-65
2022/11/16 08:40:02;;;;;;;;;;;;;;;15.17;77.34;99072.13;5095358;28;984;-66
2022/11/16 08:42:27;;;;;;;;;;;;;;;15.17;77.46;99072.13;5095340;28;991;-66
2022/11/16 08:44:52;;;;;;;;;;;;;;;15.17;77.67;99075.69;5095189;28;1236;-66
2022/11/16 08:47:17;;;;;;;;;;;;;;;15.18;77.55;99071.81;5094823;28;1894;-66
2022/11/16 08:49:43;;;;;;;;;;;;;;;15.19;77.76;99072.59;5095024;28;1031;-65
2022/11/16 08:52:08;;;;;;;;;;;;;;;15.19;77.20;99083.63;5095268;28;797;-65
2022/11/16 08:54:33;;;;;;;;;;;;;;;15.17;77.24;99083.97;5095132;28;995;-64
2022/11/16 08:56:58;;;;;;;;;;;;;;;15.18;77.51;99077.31;5094635;28;1151;-65
2022/11/16 08:59:23;;;;;;;;;;;;;;;15.18;77.13;99082.81;5095023;28;778;-65
2022/11/16 09:01:48;;;;;;;;;;;;;;;15.18;77.71;99082.81;5094973;28;801;-65
2022/11/16 09:04:14;;;;;;;;;;;;;;;15.19;77.49;99078.13;5094733;28;972;-65
2022/11/16 09:06:39;;;;;;;;;;;;;;;15.19;77.27;99084.44;5094397;28;1890;-65
2022/11/16 09:09:04;;;;;;;;;;;;;;;15.19;77.11;99084.44;5094847;28;834;-65
2022/11/16 09:11:29;;;;;;;;;;;;;;;15.19;77.59;99086.38;5094697;28;967;-65
2022/11/16 09:13:54;;;;;;;;;;;;;;;15.18;77.29;99082.81;5094763;28;722;-65
2022/11/16 09:16:20;;;;;;;;;;;;;;;15.18;77.66;99082.81;5094321;28;1196;-64
2022/11/16 09:18:46;;;;;;;;;;;;;;;15.19;77.35;99089.16;5080993;28;1760;-65
2022/11/16 09:21:26;;;;;;;;;;;;;;;15.19;77.17;99084.44;5074310;28;844;-65
2022/11/16 09:23:52;;;;;;;;;;;;;;;15.18;77.23;99091.09;5074261;28;877;-65
2022/11/16 09:26:21;;;;;;;;;;;;;;;15.19;77.61;99098.22;5073732;28;1948;-65
2022/11/16 09:28:51;;;;;;;;;;;;;;;15.20;77.62;99088.00;5074072;28;834;-64
2022/11/16 09:31:17;;;;;;;;;;;;;;;15.19;77.17;99087.19;5074004;28;797;-64
2022/11/16 09:33:42;;;;;;;;;;;;;;;15.19;77.29;99089.16;5073979;28;987;-64
2022/11/16 09:36:07;;;;;;;;;;;;;;;15.18;77.61;99093.03;5073713;28;1282;-65
2022/11/16 09:38:43;;;;;;;;;;;;;;;15.19;77.35;99091.91;5073938;28;849;-64
2022/11/16 09:41:18;;;;;;;;;;;;;;;15.19;77.19;99089.94;5074003;28;998;-64
2022/11/16 09:43:49;;;;;;;;;;;;;;;15.18;77.54;99093.84;5073920;28;873;-65
2022/11/16 09:46:22;;;;;;;;;;;;;;;15.20;77.40;99096.25;5073622;28;1878;-65
2022/11/16 09:48:48;;;;;;;;;;;;;;;15.20;77.19;99099.03;5073771;28;813;-65
2022/11/16 09:51:15;;;;;;;;;;;;;;;15.20;77.26;99093.50;5073888;28;935;-65
2022/11/16 09:53:46;;;;;;;;;;;;;;;15.20;77.20;99099.03;5073731;28;1054;-65
2022/11/16 09:56:16;;;;;;;;;;;;;;;15.20;77.29;99101.78;5073219;28;1212;-64
2022/11/16 09:58:54;;;;;;;;;;;;;;;15.19;76.81;99100.97;5073615;28;833;-66
2022/11/16 10:01:25;;;;;;;;;;;;;;;15.19;77.42;99094.66;5073513;28;983;-65
2022/11/16 10:03:52;;;;;;;;;;;;;;;15.19;77.61;99109.25;5073517;28;904;-65
2022/11/16 10:06:36;;;;;;;;;;;;;;;15.19;77.54;99105.69;5073125;28;1890;-65
2022/11/16 10:09:01;;;;;;;;;;;;;;;15.19;77.65;99111.19;5073567;28;987;-66
2022/11/16 10:11:32;;;;;;;;;;;;;;;15.19;77.17;99106.50;5073466;28;995;-64
2022/11/16 10:14:03;;;;;;;;;;;;;;;15.20;77.12;99112.81;5073396;28;967;-65
2022/11/16 10:16:39;;;;;;;;;;;;;;;15.19;77.14;99112.00;5073105;28;1331;-64
2022/11/16 10:19:22;;;;;;;;;;;;;;;15.20;77.36;99108.09;5073253;28;1080;-65
2022/11/16 10:22:06;;;;;;;;;;;;;;;15.20;77.26;99104.53;5073331;28;1170;-64
2022/11/16 10:24:40;;;;;;;;;;;;;;;15.20;77.28;99094.31;5073288;28;1023;-66
2022/11/16 10:27:15;;;;;;;;;;;;;;;15.18;77.44;99088.34;5072986;28;1894;-64
2022/11/16 10:29:52;;;;;;;;;;;;;;;15.20;77.40;99093.50;5073209;28;848;-66
2022/11/16 10:32:27;;;;;;;;;;;;;;;15.20;77.10;99083.28;5055229;28;999;-65
2022/11/16 10:34:58;;;;;;;;;;;;;;;15.20;77.19;99080.53;5073069;28;1221;-64
2022/11/16 10:37:27;;;;;;;;;;;;;;;15.20;77.46;99086.03;5064948;22;2237;-66
2022/11/16 10:39:52;;;;;;;;;;;;;;;15.20;77.32;99088.00;5033060;28;912;-66
2022/11/16 10:42:38;;;;;;;;;;;;;;;15.20;76.82;99086.03;5052159;28;1031;-66
2022/11/16 10:45:03;;;;;;;;;;;;;;;15.20;77.36;99080.53;5046460;28;829;-66
2022/11/16 10:47:48;;;;;;;;;;;;;;;15.20;77.71;99079.72;5032679;28;1898;-66
2022/11/16 10:50:16;;;;;;;;;;;;;;;15.20;77.15;99075.03;5033092;28;880;-66
2022/11/16 10:52:42;;;;;;;;;;;;;;;15.21;77.37;99082.16;5033024;28;893;-66
2022/11/16 10:55:07;;;;;;;;;;;;;;;15.21;77.24;99078.59;5033376;28;1040;-66
2022/11/16 10:57:52;;;;;;;;;;;;;;;15.22;76.98;99088.47;5032678;28;1193;-66
2022/11/16 11:00:32;;;;;;;;;;;;;;;15.20;77.21;99080.53;5033299;28;570;-66
2022/11/16 11:02:57;;;;;;;;;;;;;;;15.20;77.30;99086.03;5032934;28;987;-66
2022/11/16 11:05:22;;;;;;;;;;;;;;;15.20;76.95;99080.53;5032921;28;1194;-66
2022/11/16 11:07:57;;;;;;;;;;;;;;;15.20;77.20;99080.53;5032633;28;1890;-66
2022/11/16 11:10:26;;;;;;;;;;;;;;;15.21;77.34;99084.09;5032932;28;1003;-66
2022/11/16 11:13:04;;;;;;;;;;;;;;;15.19;77.40;99084.44;5032960;28;955;-66
2022/11/16 11:15:29;;;;;;;;;;;;;;;15.21;77.04;99084.09;5032615;28;1226;-66
2022/11/16 11:18:13;;;;;;;;;;;;;;;15.21;77.17;99086.84;5032741;28;860;-66
2022/11/16 11:20:40;;;;;;;;;;;;;;;15.21;77.45;99073.88;5032737;28;1027;-66
2022/11/16 11:23:13;;;;;;;;;;;;;;;15.21;77.09;99081.34;5032806;28;912;-66
2022/11/16 11:25:48;;;;;;;;;;;;;;;15.20;77.26;99075.03;5032583;28;1207;-66
2022/11/16 11:28:27;;;;;;;;;;;;;;;15.20;76.84;99079.72;5032679;28;1893;-66
2022/11/16 11:30:55;;;;;;;;;;;;;;;15.21;77.17;99070.31;5032720;28;904;-66
2022/11/16 11:33:22;;;;;;;;;;;;;;;15.21;76.80;99076.63;5032837;28;943;-66
2022/11/16 11:35:56;;;;;;;;;;;;;;;15.21;77.15;99073.88;5032209;28;1205;-66
2022/11/16 11:38:21;;;;;;;;;;;;;;;15.21;77.33;99075.81;5032633;28;912;-66
2022/11/16 11:40:54;;;;;;;;;;;;;;;15.20;77.02;99086.03;5032960;28;833;-66
2022/11/16 11:43:21;;;;;;;;;;;;;;;15.22;76.97;99074.69;5036379;28;1011;-66
2022/11/16 11:46:06;;;;;;;;;;;;;;;15.21;77.18;99076.63;5035916;28;1262;-66
2022/11/16 11:48:40;;;;;;;;;;;;;;;15.21;77.03;99068.38;5035404;28;1896;-66
2022/11/16 11:51:05;;;;;;;;;;;;;;;15.21;77.04;99070.31;5036172;28;865;-66
2022/11/16 11:53:37;;;;;;;;;;;;;;;15.21;76.65;99068.38;5036082;28;964;-66
2022/11/16 11:56:03;;;;;;;;;;;;;;;15.21;77.28;99070.31;5035796;28;1186;-66
2022/11/16 11:58:30;;;;;;;;;;;;;;;15.21;77.07;99070.31;5036040;28;907;-66
2022/11/16 12:00:55;;;;;;;;;;;;;;;15.21;77.37;99068.38;5035922;28;881;-66
2022/11/16 12:03:35;;;;;;;;;;;;;;;15.20;77.13;99058.47;5035838;28;778;-66
2022/11/16 12:06:01;;;;;;;;;;;;;;;15.21;76.95;99062.03;5035739;28;1318;-66
2022/11/16 12:08:51;;;;;;;;;;;;;;;15.21;77.21;99071.13;5035702;28;1961;-66
2022/11/16 12:11:27;;;;;;;;;;;;;;;15.20;77.00;99066.75;5035810;28;857;-66
2022/11/16 12:14:04;;;;;;;;;;;;;;;15.20;76.90;99069.50;5035756;28;821;-66
2022/11/16 12:16:35;;;;;;;;;;;;;;;15.21;77.26;99064.81;5035319;28;1282;-66
2022/11/16 12:19:13;;;;;;;;;;;;;;;15.21;77.01;99059.28;5035672;28;845;-66
2022/11/16 12:21:47;;;;;;;;;;;;;;;15.21;77.07;99062.03;5035562;28;885;-66
2022/11/16 12:24:20;;;;;;;;;;;;;;;15.21;76.80;99064.81;5035475;28;872;-66
2022/11/16 12:26:45;;;;;;;;;;;;;;;15.21;77.18;99067.56;5035340;28;1898;-66
2022/11/16 12:29:26;;;;;;;;;;;;;;;15.22;77.27;99069.16;5035406;28;813;-66
2022/11/16 12:32:06;;;;;;;;;;;;;;;15.20;76.94;99061.25;5035422;28;828;-66
2022/11/16 12:34:43;;;;;;;;;;;;;;;15.21;76.80;99065.59;5035205;28;882;-66
2022/11/16 12:37:20;;;;;;;;;;;;;;;15.21;76.65;99060.09;5034909;28;1258;-65
2022/11/16 12:40:07;;;;;;;;;;;;;;;15.21;76.79;99060.09;5035351;28;1137;-66
2022/11/16 12:42:40;;;;;;;;;;;;;;;15.22;76.90;99058.94;5004286;28;1109;-66
2022/11/16 12:45:22;;;;;;;;;;;;;;;15.22;77.15;99050.69;5035025;28;1047;-66
2022/11/16 12:48:05;;;;;;;;;;;;;;;15.21;76.98;99046.31;5034802;28;1902;-66
2022/11/16 12:50:30;;;;;;;;;;;;;;;15.21;77.21;99043.56;5035072;28;1042;-66
2022/11/16 12:52:56;;;;;;;;;;;;;;;15.22;76.67;99050.69;5034047;28;983;-66
2022/11/16 12:55:29;;;;;;;;;;;;;;;15.22;77.26;99045.16;5034797;28;1286;-66
2022/11/16 12:57:54;;;;;;;;;;;;;;;15.22;76.76;99050.69;5034648;28;813;-66
2022/11/16 13:00:19;;;;;;;;;;;;;;;15.23;76.96;99052.25;5034791;28;901;-66
2022/11/16 13:02:59;;;;;;;;;;;;;;;15.22;76.57;99045.16;5034828;28;885;-66
2022/11/16 13:05:34;;;;;;;;;;;;;;;15.23;76.78;99043.19;5034759;28;1203;-66
2022/11/16 13:08:20;;;;;;;;;;;;;;;15.23;76.79;99052.25;5034358;28;1955;-66
2022/11/16 13:10:47;;;;;;;;;;;;;;;15.23;77.14;99038.47;5003872;28;1213;-66
2022/11/16 13:13:26;;;;;;;;;;;;;;;15.23;76.75;99040.44;5034594;28;1158;-66
2022/11/16 13:15:51;;;;;;;;;;;;;;;15.23;77.29;99032.97;5034261;28;1275;-66
2022/11/16 13:18:19;;;;;;;;;;;;;;;15.25;76.95;99030.66;5034421;28;1051;-65
2022/11/16 13:20:52;;;;;;;;;;;;;;;15.23;76.69;99024.69;5034467;28;849;-66
2022/11/16 13:23:40;;;;;;;;;;;;;;;15.22;76.73;99028.63;5034416;28;1003;-66
2022/11/16 13:26:13;;;;;;;;;;;;;;;15.24;76.66;99031.81;5034059;28;1200;-66
2022/11/16 13:28:47;;;;;;;;;;;;;;;15.23;77.09;99030.22;5034205;28;817;-66
2022/11/16 13:31:24;;;;;;;;;;;;;;;15.24;76.47;99028.25;5034280;28;900;-66
2022/11/16 13:33:54;;;;;;;;;;;;;;;15.23;76.65;99021.13;5034217;28;848;-66
2022/11/16 13:36:35;;;;;;;;;;;;;;;15.23;76.48;99013.66;5033724;28;1199;-66
2022/11/16 13:39:00;;;;;;;;;;;;;;;15.23;77.10;99013.66;5034078;28;914;-66
2022/11/16 13:41:26;;;;;;;;;;;;;;;15.23;76.98;99012.88;5034037;28;617;-66
2022/11/16 13:43:51;;;;;;;;;;;;;;;15.24;77.08;99006.22;5033939;28;822;-66
2022/11/16 13:46:16;;;;;;;;;;;;;;;15.24;77.09;99007.00;5033684;28;1906;-66
2022/11/16 13:48:43;;;;;;;;;;;;;;;15.23;76.88;99002.63;5033963;28;908;-66
2022/11/16 13:51:17;;;;;;;;;;;;;;;15.24;77.19;98998.75;5033962;28;865;-66
2022/11/16 13:53:47;;;;;;;;;;;;;;;15.24;76.51;99000.69;5033872;28;809;-67